sensor_id;sensor_type;location;lat;lon;timestamp;noise_LAeq;noise_LA_min;noise_LA_max;noise_LA01;noise_LA95
49568;Laerm;35474;51.032;6.998;2023-03-01T00:01:25;48.72;44.47;55.06;;
49568;Laerm;35474;51.032;6.998;2023-03-01T00:03:57;48.50;44.83;55.18;;
49568;Laerm;35474;51.032;6.998;2023-03-01T00:06:25;49.01;45.42;55.20;;
49568;Laerm;35474;51.032;6.998;2023-03-01T00:08:52;49.38;44.15;65.72;;
49568;Laerm;35474;51.032;6.998;2023-03-01T00:11:22;57.94;43.58;68.36;;
49568;Laerm;35474;51.032;6.998;2023-03-01T00:13:52;55.42;43.29;68.41;;
49568;Laerm;35474;51.032;6.998;2023-03-01T00:16:24;57.72;43.04;71.66;;
49568;Laerm;35474;51.032;6.998;2023-03-01T00:18:51;53.21;42.93;65.95;;
49568;Laerm;35474;51.032;6.998;2023-03-01T00:21:20;52.58;43.14;66.18;;
49568;Laerm;35474;51.032;6.998;2023-03-01T00:23:51;45.81;43.24;53.07;;
49568;Laerm;35474;51.032;6.998;2023-03-01T00:26:20;53.88;43.86;67.54;;
49568;Laerm;35474;51.032;6.998;2023-03-01T00:28:54;45.28;43.39;47.96;;
49568;Laerm;35474;51.032;6.998;2023-03-01T00:31:33;45.40;42.95;53.57;;
49568;Laerm;35474;51.032;6.998;2023-03-01T00:34:11;44.93;42.90;49.59;;
49568;Laerm;35474;51.032;6.998;2023-03-01T00:36:39;52.42;41.96;67.19;;
49568;Laerm;35474;51.032;6.998;2023-03-01T00:39:10;50.97;43.09;65.48;;
49568;Laerm;35474;51.032;6.998;2023-03-01T00:41:37;52.42;42.98;66.12;;
49568;Laerm;35474;51.032;6.998;2023-03-01T00:44:07;54.02;42.88;68.72;;
49568;Laerm;35474;51.032;6.998;2023-03-01T00:46:38;43.88;41.38;47.04;;
49568;Laerm;35474;51.032;6.998;2023-03-01T00:49:08;59.33;41.06;75.37;;
49568;Laerm;35474;51.032;6.998;2023-03-01T00:51:35;52.15;41.68;64.63;;
49568;Laerm;35474;51.032;6.998;2023-03-01T00:54:05;44.24;42.22;49.72;;
49568;Laerm;35474;51.032;6.998;2023-03-01T00:56:32;44.04;41.68;51.17;;
49568;Laerm;35474;51.032;6.998;2023-03-01T01:00:34;56.04;42.53;70.00;;
49568;Laerm;35474;51.032;6.998;2023-03-01T01:03:02;52.35;42.29;66.84;;
49568;Laerm;35474;51.032;6.998;2023-03-01T01:05:29;47.76;43.14;59.17;;
49568;Laerm;35474;51.032;6.998;2023-03-01T01:07:55;49.26;42.59;61.17;;
49568;Laerm;35474;51.032;6.998;2023-03-01T01:10:25;44.22;42.29;46.89;;
49568;Laerm;35474;51.032;6.998;2023-03-01T01:12:51;45.12;42.35;52.25;;
49568;Laerm;35474;51.032;6.998;2023-03-01T01:15:23;54.32;43.19;66.01;;
49568;Laerm;35474;51.032;6.998;2023-03-01T01:17:50;55.37;42.59;68.09;;
49568;Laerm;35474;51.032;6.998;2023-03-01T01:20:17;44.47;42.76;50.05;;
49568;Laerm;35474;51.032;6.998;2023-03-01T01:22:44;45.17;43.04;51.67;;
49568;Laerm;35474;51.032;6.998;2023-03-01T01:25:10;55.94;43.14;69.77;;
49568;Laerm;35474;51.032;6.998;2023-03-01T01:27:37;45.24;43.09;56.07;;
49568;Laerm;35474;51.032;6.998;2023-03-01T01:30:10;48.93;43.04;59.35;;
49568;Laerm;35474;51.032;6.998;2023-03-01T01:32:37;44.47;42.47;50.98;;
49568;Laerm;35474;51.032;6.998;2023-03-01T01:35:04;46.02;42.53;57.83;;
49568;Laerm;35474;51.032;6.998;2023-03-01T01:37:31;53.00;44.43;66.98;;
49568;Laerm;35474;51.032;6.998;2023-03-01T01:40:00;47.00;44.23;53.61;;
49568;Laerm;35474;51.032;6.998;2023-03-01T01:42:32;55.58;43.63;70.70;;
49568;Laerm;35474;51.032;6.998;2023-03-01T01:45:27;55.21;43.34;67.35;;
49568;Laerm;35474;51.032;6.998;2023-03-01T01:48:00;53.93;42.82;68.40;;
49568;Laerm;35474;51.032;6.998;2023-03-01T01:50:29;45.16;43.09;51.94;;
49568;Laerm;35474;51.032;6.998;2023-03-01T01:53:09;45.98;43.58;55.00;;
49568;Laerm;35474;51.032;6.998;2023-03-01T01:55:42;56.52;43.24;68.30;;
49568;Laerm;35474;51.032;6.998;2023-03-01T01:58:11;51.80;43.29;65.20;;
49568;Laerm;35474;51.032;6.998;2023-03-01T02:00:38;44.98;43.09;49.04;;
49568;Laerm;35474;51.032;6.998;2023-03-01T02:03:11;46.13;43.34;51.30;;
49568;Laerm;35474;51.032;6.998;2023-03-01T02:05:59;53.10;43.34;66.73;;
49568;Laerm;35474;51.032;6.998;2023-03-01T02:08:30;47.86;44.11;60.90;;
49568;Laerm;35474;51.032;6.998;2023-03-01T02:10:59;50.04;45.30;58.17;;
49568;Laerm;35474;51.032;6.998;2023-03-01T02:13:31;48.96;44.69;55.91;;
49568;Laerm;35474;51.032;6.998;2023-03-01T02:16:02;49.20;44.51;58.06;;
49568;Laerm;35474;51.032;6.998;2023-03-01T02:18:29;48.20;42.93;57.99;;
49568;Laerm;35474;51.032;6.998;2023-03-01T02:23:44;48.84;44.07;59.35;;
49568;Laerm;35474;51.032;6.998;2023-03-01T02:26:31;47.75;44.51;56.55;;
49568;Laerm;35474;51.032;6.998;2023-03-01T02:29:04;49.49;45.36;54.82;;
49568;Laerm;35474;51.032;6.998;2023-03-01T02:31:32;53.49;46.62;67.51;;
49568;Laerm;35474;51.032;6.998;2023-03-01T02:34:12;50.39;45.30;56.23;;
49568;Laerm;35474;51.032;6.998;2023-03-01T02:36:52;47.95;44.39;53.87;;
49568;Laerm;35474;51.032;6.998;2023-03-01T02:39:25;54.42;44.07;68.80;;
49568;Laerm;35474;51.032;6.998;2023-03-01T02:41:54;57.19;44.27;72.81;;
49568;Laerm;35474;51.032;6.998;2023-03-01T02:44:23;53.87;45.30;67.12;;
49568;Laerm;35474;51.032;6.998;2023-03-01T02:46:52;53.47;44.23;68.54;;
49568;Laerm;35474;51.032;6.998;2023-03-01T02:49:26;50.42;43.99;64.29;;
49568;Laerm;35474;51.032;6.998;2023-03-01T02:55:13;50.97;44.11;65.13;;
49568;Laerm;35474;51.032;6.998;2023-03-01T02:57:44;45.94;43.90;49.90;;
49568;Laerm;35474;51.032;6.998;2023-03-01T03:00:37;51.39;43.24;71.09;;
49568;Laerm;35474;51.032;6.998;2023-03-01T03:03:16;56.82;43.63;71.88;;
49568;Laerm;35474;51.032;6.998;2023-03-01T03:05:43;46.42;43.89;52.52;;
49568;Laerm;35474;51.032;6.998;2023-03-01T03:08:14;46.87;44.47;63.04;;
49568;Laerm;35474;51.032;6.998;2023-03-01T03:10:42;56.33;44.79;71.04;;
49568;Laerm;35474;51.032;6.998;2023-03-01T03:13:12;54.65;44.80;71.18;;
49568;Laerm;35474;51.032;6.998;2023-03-01T03:15:41;48.81;45.04;55.15;;
49568;Laerm;35474;51.032;6.998;2023-03-01T03:18:14;52.36;45.14;66.59;;
49568;Laerm;35474;51.032;6.998;2023-03-01T03:20:42;56.18;45.14;68.68;;
49568;Laerm;35474;51.032;6.998;2023-03-01T03:23:10;51.56;44.65;63.95;;
49568;Laerm;35474;51.032;6.998;2023-03-01T03:25:37;56.98;45.11;68.84;;
49568;Laerm;35474;51.032;6.998;2023-03-01T03:28:05;54.90;45.66;69.76;;
49568;Laerm;35474;51.032;6.998;2023-03-01T03:30:39;55.04;44.58;69.79;;
49568;Laerm;35474;51.032;6.998;2023-03-01T03:33:09;54.43;44.31;70.56;;
49568;Laerm;35474;51.032;6.998;2023-03-01T03:35:42;55.90;44.87;69.81;;
49568;Laerm;35474;51.032;6.998;2023-03-01T03:38:11;54.16;45.63;66.68;;
49568;Laerm;35474;51.032;6.998;2023-03-01T03:40:59;52.01;44.15;64.04;;
49568;Laerm;35474;51.032;6.998;2023-03-01T03:43:31;58.48;45.11;72.63;;
49568;Laerm;35474;51.032;6.998;2023-03-01T03:45:58;55.89;44.43;68.68;;
49568;Laerm;35474;51.032;6.998;2023-03-01T03:48:25;46.85;44.27;62.62;;
49568;Laerm;35474;51.032;6.998;2023-03-01T03:50:54;59.12;45.42;71.90;;
49568;Laerm;35474;51.032;6.998;2023-03-01T03:53:23;55.81;45.45;69.53;;
49568;Laerm;35474;51.032;6.998;2023-03-01T03:55:50;57.96;45.23;71.52;;
49568;Laerm;35474;51.032;6.998;2023-03-01T03:58:21;56.39;44.69;69.89;;
49568;Laerm;35474;51.032;6.998;2023-03-01T04:00:55;59.76;46.20;68.93;;
49568;Laerm;35474;51.032;6.998;2023-03-01T04:03:24;60.24;46.13;71.85;;
49568;Laerm;35474;51.032;6.998;2023-03-01T04:05:52;61.16;45.07;70.23;;
49568;Laerm;35474;51.032;6.998;2023-03-01T04:08:20;56.77;44.83;67.97;;
49568;Laerm;35474;51.032;6.998;2023-03-01T04:10:50;59.38;45.60;69.80;;
49568;Laerm;35474;51.032;6.998;2023-03-01T04:13:22;60.04;45.75;68.70;;
49568;Laerm;35474;51.032;6.998;2023-03-01T04:15:50;58.32;45.11;69.76;;
49568;Laerm;35474;51.032;6.998;2023-03-01T04:18:19;57.43;45.27;68.76;;
49568;Laerm;35474;51.032;6.998;2023-03-01T04:20:46;62.48;45.69;75.88;;
49568;Laerm;35474;51.032;6.998;2023-03-01T04:23:16;61.28;46.62;73.27;;
49568;Laerm;35474;51.032;6.998;2023-03-01T04:25:48;64.08;46.28;75.73;;
49568;Laerm;35474;51.032;6.998;2023-03-01T04:28:31;59.85;45.14;70.83;;
49568;Laerm;35474;51.032;6.998;2023-03-01T04:31:07;61.45;46.69;72.23;;
49568;Laerm;35474;51.032;6.998;2023-03-01T04:36:08;63.86;47.14;74.57;;
49568;Laerm;35474;51.032;6.998;2023-03-01T04:38:36;64.09;48.92;71.47;;
49568;Laerm;35474;51.032;6.998;2023-03-01T04:41:06;62.83;45.66;71.62;;
49568;Laerm;35474;51.032;6.998;2023-03-01T04:43:34;59.68;45.63;72.51;;
49568;Laerm;35474;51.032;6.998;2023-03-01T04:46:05;63.54;47.24;72.83;;
49568;Laerm;35474;51.032;6.998;2023-03-01T04:48:33;62.37;49.21;70.60;;
49568;Laerm;35474;51.032;6.998;2023-03-01T04:51:00;63.67;53.30;71.73;;
49568;Laerm;35474;51.032;6.998;2023-03-01T04:53:27;64.51;49.60;74.70;;
49568;Laerm;35474;51.032;6.998;2023-03-01T04:55:55;63.83;48.69;78.08;;
49568;Laerm;35474;51.032;6.998;2023-03-01T04:58:23;62.43;46.80;71.39;;
49568;Laerm;35474;51.032;6.998;2023-03-01T05:00:50;63.94;45.75;75.10;;
49568;Laerm;35474;51.032;6.998;2023-03-01T05:03:17;58.78;46.06;69.92;;
49568;Laerm;35474;51.032;6.998;2023-03-01T05:05:49;65.97;49.40;74.26;;
49568;Laerm;35474;51.032;6.998;2023-03-01T05:08:16;61.19;47.70;70.36;;
49568;Laerm;35474;51.032;6.998;2023-03-01T05:10:51;62.43;46.55;70.87;;
49568;Laerm;35474;51.032;6.998;2023-03-01T05:13:20;61.95;49.52;71.24;;
49568;Laerm;35474;51.032;6.998;2023-03-01T05:16:00;66.24;46.87;74.46;;
49568;Laerm;35474;51.032;6.998;2023-03-01T05:18:28;63.55;47.14;74.27;;
49568;Laerm;35474;51.032;6.998;2023-03-01T05:21:12;63.75;47.72;75.10;;
49568;Laerm;35474;51.032;6.998;2023-03-01T05:23:41;64.89;48.43;73.11;;
49568;Laerm;35474;51.032;6.998;2023-03-01T05:26:14;65.01;49.46;74.82;;
49568;Laerm;35474;51.032;6.998;2023-03-01T05:28:53;65.21;49.02;74.92;;
49568;Laerm;35474;51.032;6.998;2023-03-01T05:31:24;65.42;47.00;74.94;;
49568;Laerm;35474;51.032;6.998;2023-03-01T05:33:51;63.09;46.89;70.63;;
49568;Laerm;35474;51.032;6.998;2023-03-01T05:36:19;60.90;45.80;70.09;;
49568;Laerm;35474;51.032;6.998;2023-03-01T05:38:45;65.26;46.96;75.45;;
49568;Laerm;35474;51.032;6.998;2023-03-01T05:41:15;66.23;51.27;73.44;;
49568;Laerm;35474;51.032;6.998;2023-03-01T05:43:43;63.86;47.68;71.49;;
49568;Laerm;35474;51.032;6.998;2023-03-01T05:46:11;66.28;51.36;73.81;;
49568;Laerm;35474;51.032;6.998;2023-03-01T05:48:40;65.32;51.64;72.73;;
49568;Laerm;35474;51.032;6.998;2023-03-01T05:51:06;65.55;53.05;71.35;;
49568;Laerm;35474;51.032;6.998;2023-03-01T05:53:33;66.49;50.63;72.85;;
49568;Laerm;35474;51.032;6.998;2023-03-01T05:56:03;65.11;48.07;72.23;;
49568;Laerm;35474;51.032;6.998;2023-03-01T05:58:29;65.28;52.17;72.99;;
49568;Laerm;35474;51.032;6.998;2023-03-01T06:00:57;62.67;48.51;71.18;;
49568;Laerm;35474;51.032;6.998;2023-03-01T06:03:24;64.27;51.95;72.09;;
49568;Laerm;35474;51.032;6.998;2023-03-01T06:05:57;65.20;50.29;71.49;;
49568;Laerm;35474;51.032;6.998;2023-03-01T06:08:24;67.02;50.20;73.36;;
49568;Laerm;35474;51.032;6.998;2023-03-01T06:10:55;64.75;49.49;72.78;;
49568;Laerm;35474;51.032;6.998;2023-03-01T06:13:25;65.76;54.22;71.31;;
49568;Laerm;35474;51.032;6.998;2023-03-01T06:15:51;66.47;52.79;73.69;;
49568;Laerm;35474;51.032;6.998;2023-03-01T06:18:18;65.85;56.93;72.63;;
49568;Laerm;35474;51.032;6.998;2023-03-01T06:20:55;67.00;49.88;77.17;;
49568;Laerm;35474;51.032;6.998;2023-03-01T06:23:38;64.89;54.72;72.94;;
49568;Laerm;35474;51.032;6.998;2023-03-01T06:26:09;66.94;55.13;79.39;;
49568;Laerm;35474;51.032;6.998;2023-03-01T06:28:38;65.88;48.83;74.10;;
49568;Laerm;35474;51.032;6.998;2023-03-01T06:31:05;67.41;54.89;73.37;;
49568;Laerm;35474;51.032;6.998;2023-03-01T06:33:37;66.80;55.52;73.26;;
49568;Laerm;35474;51.032;6.998;2023-03-01T06:36:06;66.15;50.61;73.33;;
49568;Laerm;35474;51.032;6.998;2023-03-01T06:38:33;67.55;58.34;72.54;;
49568;Laerm;35474;51.032;6.998;2023-03-01T06:41:03;66.59;56.55;72.73;;
49568;Laerm;35474;51.032;6.998;2023-03-01T06:43:36;65.17;49.03;72.95;;
49568;Laerm;35474;51.032;6.998;2023-03-01T06:46:06;64.94;50.97;74.84;;
49568;Laerm;35474;51.032;6.998;2023-03-01T06:48:35;65.65;51.90;71.75;;
49568;Laerm;35474;51.032;6.998;2023-03-01T06:51:02;65.95;54.95;73.21;;
49568;Laerm;35474;51.032;6.998;2023-03-01T06:53:29;65.67;53.89;81.13;;
49568;Laerm;35474;51.032;6.998;2023-03-01T06:55:56;65.56;52.57;77.74;;
49568;Laerm;35474;51.032;6.998;2023-03-01T06:58:26;64.85;49.23;72.83;;
49568;Laerm;35474;51.032;6.998;2023-03-01T07:00:52;66.24;51.13;77.93;;
49568;Laerm;35474;51.032;6.998;2023-03-01T07:03:19;65.53;50.79;74.35;;
49568;Laerm;35474;51.032;6.998;2023-03-01T07:05:48;66.30;57.70;73.17;;
49568;Laerm;35474;51.032;6.998;2023-03-01T07:08:18;66.35;55.83;74.28;;
49568;Laerm;35474;51.032;6.998;2023-03-01T07:10:45;66.50;50.15;76.19;;
49568;Laerm;35474;51.032;6.998;2023-03-01T07:13:17;65.61;47.79;80.08;;
49568;Laerm;35474;51.032;6.998;2023-03-01T07:15:45;66.77;55.61;74.25;;
49568;Laerm;35474;51.032;6.998;2023-03-01T07:18:12;68.10;60.16;74.45;;
49568;Laerm;35474;51.032;6.998;2023-03-01T07:20:42;65.79;53.28;74.59;;
49568;Laerm;35474;51.032;6.998;2023-03-01T07:23:09;65.82;56.32;73.51;;
49568;Laerm;35474;51.032;6.998;2023-03-01T07:25:36;66.25;46.87;75.34;;
49568;Laerm;35474;51.032;6.998;2023-03-01T07:28:24;66.68;53.56;73.70;;
49568;Laerm;35474;51.032;6.998;2023-03-01T07:32:35;72.46;68.29;85.05;;
49568;Laerm;35474;51.032;6.998;2023-03-01T07:35:04;72.55;68.60;76.57;;
49568;Laerm;35474;51.032;6.998;2023-03-01T07:37:33;72.37;67.73;82.79;;
49568;Laerm;35474;51.032;6.998;2023-03-01T07:40:04;71.96;67.27;75.63;;
49568;Laerm;35474;51.032;6.998;2023-03-01T07:42:32;71.93;67.76;78.20;;
49568;Laerm;35474;51.032;6.998;2023-03-01T07:44:58;72.28;67.87;76.45;;
49568;Laerm;35474;51.032;6.998;2023-03-01T07:47:25;72.18;68.70;76.74;;
49568;Laerm;35474;51.032;6.998;2023-03-01T07:49:55;71.92;68.73;74.56;;
49568;Laerm;35474;51.032;6.998;2023-03-01T07:52:31;72.05;68.37;75.92;;
49568;Laerm;35474;51.032;6.998;2023-03-01T07:54:58;72.25;67.95;77.45;;
49568;Laerm;35474;51.032;6.998;2023-03-01T07:57:26;72.58;68.81;81.19;;
49568;Laerm;35474;51.032;6.998;2023-03-01T07:59:55;72.56;69.09;81.40;;
49568;Laerm;35474;51.032;6.998;2023-03-01T08:02:23;72.54;69.34;77.55;;
49568;Laerm;35474;51.032;6.998;2023-03-01T08:04:53;72.22;67.76;90.05;;
49568;Laerm;35474;51.032;6.998;2023-03-01T08:07:20;72.80;67.85;84.37;;
49568;Laerm;35474;51.032;6.998;2023-03-01T08:09:47;83.25;69.33;102.00;;
49568;Laerm;35474;51.032;6.998;2023-03-01T08:12:14;72.42;68.85;79.22;;
49568;Laerm;35474;51.032;6.998;2023-03-01T08:14:43;72.02;67.53;76.31;;
49568;Laerm;35474;51.032;6.998;2023-03-01T08:17:10;76.68;69.12;92.79;;
49568;Laerm;35474;51.032;6.998;2023-03-01T08:19:37;74.26;68.92;90.27;;
49568;Laerm;35474;51.032;6.998;2023-03-01T08:22:07;79.57;68.48;99.31;;
49568;Laerm;35474;51.032;6.998;2023-03-01T08:24:40;72.18;66.43;76.47;;
49568;Laerm;35474;51.032;6.998;2023-03-01T08:27:08;72.24;67.63;75.29;;
49568;Laerm;35474;51.032;6.998;2023-03-01T08:29:41;72.09;69.10;75.83;;
49568;Laerm;35474;51.032;6.998;2023-03-01T08:32:09;82.27;69.00;104.36;;
49568;Laerm;35474;51.032;6.998;2023-03-01T08:34:37;72.02;68.16;83.51;;
49568;Laerm;35474;51.032;6.998;2023-03-01T08:37:07;72.31;68.92;80.57;;
49568;Laerm;35474;51.032;6.998;2023-03-01T08:39:34;72.65;68.58;88.46;;
49568;Laerm;35474;51.032;6.998;2023-03-01T08:42:01;72.53;69.20;82.79;;
49568;Laerm;35474;51.032;6.998;2023-03-01T08:44:27;72.57;68.73;79.32;;
49568;Laerm;35474;51.032;6.998;2023-03-01T08:46:54;72.29;67.83;79.32;;
49568;Laerm;35474;51.032;6.998;2023-03-01T08:49:21;72.23;68.91;75.50;;
49568;Laerm;35474;51.032;6.998;2023-03-01T08:51:49;72.14;68.01;77.15;;
49568;Laerm;35474;51.032;6.998;2023-03-01T08:54:18;72.32;69.19;81.12;;
49568;Laerm;35474;51.032;6.998;2023-03-01T08:56:46;71.78;68.48;86.29;;
49568;Laerm;35474;51.032;6.998;2023-03-01T08:59:14;72.01;67.96;85.95;;
49568;Laerm;35474;51.032;6.998;2023-03-01T09:01:41;72.21;68.88;83.43;;
49568;Laerm;35474;51.032;6.998;2023-03-01T09:04:12;73.07;68.62;88.24;;
49568;Laerm;35474;51.032;6.998;2023-03-01T09:06:39;71.69;68.40;83.30;;
49568;Laerm;35474;51.032;6.998;2023-03-01T09:09:06;72.31;68.36;83.33;;
49568;Laerm;35474;51.032;6.998;2023-03-01T09:11:33;72.32;69.33;81.06;;
49568;Laerm;35474;51.032;6.998;2023-03-01T09:13:59;71.96;69.10;75.55;;
49568;Laerm;35474;51.032;6.998;2023-03-01T09:16:26;72.23;68.99;75.73;;
49568;Laerm;35474;51.032;6.998;2023-03-01T09:18:54;72.72;68.64;84.58;;
49568;Laerm;35474;51.032;6.998;2023-03-01T09:21:23;73.36;68.88;86.55;;
49568;Laerm;35474;51.032;6.998;2023-03-01T09:24:12;72.32;68.85;83.08;;
49568;Laerm;35474;51.032;6.998;2023-03-01T09:26:40;71.87;68.41;76.90;;
49568;Laerm;35474;51.032;6.998;2023-03-01T09:29:06;72.70;68.78;79.01;;
49568;Laerm;35474;51.032;6.998;2023-03-01T09:31:33;81.12;69.03;102.14;;
49568;Laerm;35474;51.032;6.998;2023-03-01T09:33:59;72.06;68.71;76.04;;
49568;Laerm;35474;51.032;6.998;2023-03-01T09:36:26;72.16;69.34;76.72;;
49568;Laerm;35474;51.032;6.998;2023-03-01T09:38:53;72.21;69.16;75.54;;
49568;Laerm;35474;51.032;6.998;2023-03-01T09:41:26;72.48;68.96;78.79;;
49568;Laerm;35474;51.032;6.998;2023-03-01T09:44:10;73.94;68.76;87.54;;
49568;Laerm;35474;51.032;6.998;2023-03-01T09:46:43;74.27;68.82;93.77;;
49568;Laerm;35474;51.032;6.998;2023-03-01T09:49:31;72.28;68.47;85.64;;
49568;Laerm;35474;51.032;6.998;2023-03-01T09:52:19;72.56;69.34;87.38;;
49568;Laerm;35474;51.032;6.998;2023-03-01T09:54:49;72.30;68.75;75.74;;
49568;Laerm;35474;51.032;6.998;2023-03-01T09:57:39;72.01;68.75;79.93;;
49568;Laerm;35474;51.032;6.998;2023-03-01T10:00:29;72.72;68.67;85.61;;
49568;Laerm;35474;51.032;6.998;2023-03-01T10:05:47;71.90;68.80;83.92;;
49568;Laerm;35474;51.032;6.998;2023-03-01T10:08:28;72.13;68.75;77.70;;
49568;Laerm;35474;51.032;6.998;2023-03-01T10:10:58;72.17;68.81;76.04;;
49568;Laerm;35474;51.032;6.998;2023-03-01T10:13:34;74.24;67.59;92.60;;
49568;Laerm;35474;51.032;6.998;2023-03-01T10:16:13;73.45;69.35;89.38;;
49568;Laerm;35474;51.032;6.998;2023-03-01T10:18:41;72.31;69.12;83.12;;
49568;Laerm;35474;51.032;6.998;2023-03-01T10:21:18;72.51;68.44;85.26;;
49568;Laerm;35474;51.032;6.998;2023-03-01T10:23:46;72.52;68.52;79.00;;
49568;Laerm;35474;51.032;6.998;2023-03-01T10:29:00;72.54;67.61;86.59;;
49568;Laerm;35474;51.032;6.998;2023-03-01T10:31:42;72.26;68.82;75.34;;
49568;Laerm;35474;51.032;6.998;2023-03-01T10:34:17;72.20;68.92;75.71;;
49568;Laerm;35474;51.032;6.998;2023-03-01T10:36:49;72.30;69.23;76.26;;
49568;Laerm;35474;51.032;6.998;2023-03-01T10:39:23;72.21;69.02;75.65;;
49568;Laerm;35474;51.032;6.998;2023-03-01T10:42:01;72.04;68.87;81.67;;
49568;Laerm;35474;51.032;6.998;2023-03-01T10:47:04;72.23;68.94;76.23;;
49568;Laerm;35474;51.032;6.998;2023-03-01T10:49:31;72.28;67.91;82.29;;
49568;Laerm;35474;51.032;6.998;2023-03-01T10:52:17;72.29;68.73;75.86;;
49568;Laerm;35474;51.032;6.998;2023-03-01T10:54:52;72.28;68.23;75.43;;
49568;Laerm;35474;51.032;6.998;2023-03-01T10:57:32;72.22;69.44;78.16;;
49568;Laerm;35474;51.032;6.998;2023-03-01T11:00:17;71.95;68.69;75.81;;
49568;Laerm;35474;51.032;6.998;2023-03-01T11:02:48;72.11;68.65;82.10;;
49568;Laerm;35474;51.032;6.998;2023-03-01T11:05:20;71.77;68.77;76.11;;
49568;Laerm;35474;51.032;6.998;2023-03-01T11:07:48;72.21;68.45;81.35;;
49568;Laerm;35474;51.032;6.998;2023-03-01T11:10:21;72.07;69.16;77.94;;
49568;Laerm;35474;51.032;6.998;2023-03-01T11:12:48;71.91;69.00;77.10;;
49568;Laerm;35474;51.032;6.998;2023-03-01T11:15:26;72.07;68.40;76.44;;
49568;Laerm;35474;51.032;6.998;2023-03-01T11:17:56;71.96;67.07;75.52;;
49568;Laerm;35474;51.032;6.998;2023-03-01T11:20:39;72.23;68.09;80.90;;
49568;Laerm;35474;51.032;6.998;2023-03-01T11:23:10;72.26;67.64;81.64;;
49568;Laerm;35474;51.032;6.998;2023-03-01T11:25:43;71.88;69.01;75.39;;
49568;Laerm;35474;51.032;6.998;2023-03-01T11:28:14;71.78;67.09;81.58;;
49568;Laerm;35474;51.032;6.998;2023-03-01T11:30:54;72.60;68.76;91.39;;
49568;Laerm;35474;51.032;6.998;2023-03-01T11:36:15;71.61;67.74;77.38;;
49568;Laerm;35474;51.032;6.998;2023-03-01T11:38:43;71.99;69.35;81.19;;
49568;Laerm;35474;51.032;6.998;2023-03-01T11:41:30;72.28;68.85;77.15;;
49568;Laerm;35474;51.032;6.998;2023-03-01T11:55:01;72.34;69.38;80.83;;
49568;Laerm;35474;51.032;6.998;2023-03-01T12:08:59;71.70;67.18;77.20;;
49568;Laerm;35474;51.032;6.998;2023-03-01T12:17:07;71.66;67.45;77.27;;
49568;Laerm;35474;51.032;6.998;2023-03-01T12:19:57;71.52;68.55;75.29;;
49568;Laerm;35474;51.032;6.998;2023-03-01T12:25:52;72.06;68.21;81.59;;
49568;Laerm;35474;51.032;6.998;2023-03-01T12:28:31;71.55;68.26;75.99;;
49568;Laerm;35474;51.032;6.998;2023-03-01T12:31:25;71.93;67.14;76.28;;
49568;Laerm;35474;51.032;6.998;2023-03-01T12:37:16;72.09;67.85;75.85;;
49568;Laerm;35474;51.032;6.998;2023-03-01T12:45:50;74.73;67.20;92.37;;
49568;Laerm;35474;51.032;6.998;2023-03-01T12:48:40;72.18;66.83;84.28;;
49568;Laerm;35474;51.032;6.998;2023-03-01T12:51:14;72.06;68.77;83.92;;
49568;Laerm;35474;51.032;6.998;2023-03-01T12:53:47;72.16;68.79;78.75;;
49568;Laerm;35474;51.032;6.998;2023-03-01T12:56:22;73.56;67.69;88.54;;
49568;Laerm;35474;51.032;6.998;2023-03-01T13:04:37;71.81;66.97;81.41;;
49568;Laerm;35474;51.032;6.998;2023-03-01T13:09:40;74.06;68.75;82.15;;
49568;Laerm;35474;51.032;6.998;2023-03-01T13:26:16;71.51;66.94;78.40;;
49568;Laerm;35474;51.032;6.998;2023-03-01T13:34:00;72.01;67.47;77.05;;
49568;Laerm;35474;51.032;6.998;2023-03-01T13:46:56;72.27;68.15;84.52;;
49568;Laerm;35474;51.032;6.998;2023-03-01T13:49:29;72.14;68.86;80.98;;
49568;Laerm;35474;51.032;6.998;2023-03-01T13:52:48;72.38;68.55;82.10;;
49568;Laerm;35474;51.032;6.998;2023-03-01T13:57:42;71.92;68.38;77.96;;
49568;Laerm;35474;51.032;6.998;2023-03-01T14:03:19;71.83;67.97;79.78;;
49568;Laerm;35474;51.032;6.998;2023-03-01T14:08:41;71.94;66.67;76.90;;
49568;Laerm;35474;51.032;6.998;2023-03-01T14:11:24;72.16;67.30;75.49;;
49568;Laerm;35474;51.032;6.998;2023-03-01T14:19:25;75.30;67.19;93.05;;
49568;Laerm;35474;51.032;6.998;2023-03-01T14:24:59;73.10;67.97;85.56;;
49568;Laerm;35474;51.032;6.998;2023-03-01T14:27:37;72.66;67.52;86.18;;
49568;Laerm;35474;51.032;6.998;2023-03-01T14:30:20;72.32;67.03;79.18;;
49568;Laerm;35474;51.032;6.998;2023-03-01T14:35:31;72.12;68.42;75.95;;
49568;Laerm;35474;51.032;6.998;2023-03-01T14:37:59;71.93;67.71;76.02;;
49568;Laerm;35474;51.032;6.998;2023-03-01T14:40:34;71.98;68.42;80.31;;
49568;Laerm;35474;51.032;6.998;2023-03-01T14:43:09;73.51;68.83;86.01;;
49568;Laerm;35474;51.032;6.998;2023-03-01T14:45:37;74.07;69.14;87.86;;
49568;Laerm;35474;51.032;6.998;2023-03-01T14:48:07;72.32;68.35;79.35;;
49568;Laerm;35474;51.032;6.998;2023-03-01T14:50:35;72.72;68.56;83.43;;
49568;Laerm;35474;51.032;6.998;2023-03-01T14:53:07;72.89;68.44;87.13;;
49568;Laerm;35474;51.032;6.998;2023-03-01T14:55:44;72.48;68.85;84.54;;
49568;Laerm;35474;51.032;6.998;2023-03-01T14:58:15;72.43;67.44;77.23;;
49568;Laerm;35474;51.032;6.998;2023-03-01T15:00:50;71.86;68.39;78.62;;
49568;Laerm;35474;51.032;6.998;2023-03-01T15:03:24;72.34;67.31;86.85;;
49568;Laerm;35474;51.032;6.998;2023-03-01T15:05:52;71.98;67.85;82.01;;
49568;Laerm;35474;51.032;6.998;2023-03-01T15:08:23;72.35;68.89;79.00;;
49568;Laerm;35474;51.032;6.998;2023-03-01T15:11:05;72.29;68.58;83.04;;
49568;Laerm;35474;51.032;6.998;2023-03-01T15:13:35;72.07;69.31;77.73;;
49568;Laerm;35474;51.032;6.998;2023-03-01T15:16:11;72.04;68.91;79.28;;
49568;Laerm;35474;51.032;6.998;2023-03-01T15:18:57;73.18;68.61;89.80;;
49568;Laerm;35474;51.032;6.998;2023-03-01T15:21:33;73.53;69.28;86.74;;
49568;Laerm;35474;51.032;6.998;2023-03-01T15:24:08;75.78;69.35;93.38;;
49568;Laerm;35474;51.032;6.998;2023-03-01T15:29:22;73.05;69.60;87.06;;
49568;Laerm;35474;51.032;6.998;2023-03-01T15:34:52;73.08;69.12;89.06;;
49568;Laerm;35474;51.032;6.998;2023-03-01T15:37:47;72.35;69.16;79.01;;
49568;Laerm;35474;51.032;6.998;2023-03-01T15:40:19;72.42;69.31;81.29;;
49568;Laerm;35474;51.032;6.998;2023-03-01T15:42:47;72.78;69.32;79.48;;
49568;Laerm;35474;51.032;6.998;2023-03-01T15:47:47;72.61;67.93;78.46;;
49568;Laerm;35474;51.032;6.998;2023-03-01T15:50:35;72.32;67.83;74.81;;
49568;Laerm;35474;51.032;6.998;2023-03-01T15:53:10;72.49;68.88;78.39;;
49568;Laerm;35474;51.032;6.998;2023-03-01T15:55:38;72.57;68.44;81.11;;
49568;Laerm;35474;51.032;6.998;2023-03-01T15:58:18;72.80;69.22;88.50;;
49568;Laerm;35474;51.032;6.998;2023-03-01T16:00:46;72.65;68.45;85.80;;
49568;Laerm;35474;51.032;6.998;2023-03-01T16:03:27;72.26;67.54;77.33;;
49568;Laerm;35474;51.032;6.998;2023-03-01T16:05:53;72.52;69.15;76.79;;
49568;Laerm;35474;51.032;6.998;2023-03-01T16:08:20;72.34;69.16;80.19;;
49568;Laerm;35474;51.032;6.998;2023-03-01T16:10:47;72.16;67.56;75.93;;
49568;Laerm;35474;51.032;6.998;2023-03-01T16:13:16;72.38;67.96;76.25;;
49568;Laerm;35474;51.032;6.998;2023-03-01T16:15:43;72.21;67.73;78.15;;
49568;Laerm;35474;51.032;6.998;2023-03-01T16:18:10;72.26;68.65;75.41;;